Wednesday, July 27, 2016, 11:14 AM EDT

KTHV, York Airport

Location: Spring Grove, PA, United States Lat: 39.917
Local Time: 11:14 AM EDT (15:14 GMT) Lon: -76.883
Time Zone: US/Eastern Elev: 478 ft

Show me the last for .
Show Decoded

2016-07-27 10:53 METAR KTHV 271453Z AUTO VRB03KT 10SM CLR 28/18 A2999 RMK AO2 SLP151 T02830183
                 51002 =
2016-07-27 09:53 METAR KTHV 271353Z AUTO VRB03KT 10SM CLR 28/18 A2998 RMK AO2 SLP150 T02780178 =
2016-07-27 08:53 METAR KTHV 271253Z AUTO 05007KT 10SM CLR 27/18 A2999 RMK AO2 SLP152 T02670183 =
2016-07-27 07:53 METAR KTHV 271153Z AUTO 04004KT 10SM CLR 24/18 A2998 RMK AO2 SLP149 T02440183
                 10244 20217 51009 =
2016-07-27 06:53 METAR KTHV 271053Z AUTO 00000KT 10SM CLR 22/19 A2998 RMK AO2 SLP149 T02170194 =
2016-07-27 05:53 METAR KTHV 270953Z AUTO 00000KT 10SM FEW120 22/19 A2997 RMK AO2 SLP144 T02170194
                 =
2016-07-27 04:53 METAR KTHV 270853Z AUTO 00000KT 10SM CLR 22/19 A2995 RMK AO2 SLP140 T02220194
                 53001 =
2016-07-27 03:53 METAR KTHV 270753Z AUTO 00000KT 10SM CLR 23/19 A2995 RMK AO2 SLP139 T02280189 =
2016-07-27 02:53 METAR KTHV 270653Z AUTO 28004KT 10SM FEW110 23/20 A2995 RMK AO2 SLP138 T02280200
                 =
2016-07-27 01:53 METAR KTHV 270553Z AUTO 00000KT 10SM CLR 23/21 A2995 RMK AO2 SLP139 T02330206
                 10283 20228 50006 =
2016-07-27 00:53 METAR KTHV 270453Z AUTO 00000KT 10SM CLR 24/20 A2995 RMK AO2 SLP139 T02440200
                 403170206 =
2016-07-26 23:53 METAR KTHV 270353Z AUTO 28003KT 10SM CLR 25/21 A2994 RMK AO2 SLP135 T02500206 =
2016-07-26 22:53 METAR KTHV 270253Z AUTO 00000KT 10SM CLR 26/21 A2993 RMK AO2 SLP132 T02610206
                 50006 =
2016-07-26 21:53 METAR KTHV 270153Z AUTO 00000KT 10SM CLR 26/22 A2994 RMK AO2 SLP136 T02610217 =
2016-07-26 20:53 METAR KTHV 270053Z AUTO 00000KT 10SM CLR 27/22 A2992 RMK AO2 SLP128 T02720222 =
2016-07-26 19:53 METAR KTHV 262353Z AUTO 00000KT 10SM CLR 28/23 A2991 RMK AO2 SLP127 T02830228
                 10317 20283 55000 =
2016-07-26 18:53 METAR KTHV 262253Z AUTO 20003KT 10SM CLR 29/22 A2991 RMK AO2 SLP125 T02940222 =
2016-07-26 17:53 METAR KTHV 262153Z AUTO 22003KT 10SM CLR 31/22 A2991 RMK AO2 SLP126 T03060217 =
2016-07-26 16:53 METAR KTHV 262053Z AUTO 00000KT 10SM CLR 31/20 A2991 RMK AO2 SLP126 T03110200
                 58016 =
2016-07-26 15:53 METAR KTHV 261953Z AUTO 22005KT 10SM CLR 31/22 A2993 RMK AO2 SLP134 T03060217 =
2016-07-26 14:53 METAR KTHV 261853Z AUTO 21003KT 10SM FEW060 31/22 A2995 RMK AO2 SLP138 T03110217
                 =
2016-07-26 13:53 METAR KTHV 261753Z AUTO 28004KT 10SM FEW060 30/21 A2996 RMK AO2 SLP142 T03000206
                 10306 20228 57007 =
2016-07-26 12:53 METAR KTHV 261653Z AUTO 31004KT 10SM FEW055 31/21 A2997 RMK AO2 SLP144 T03060211
                 =
2016-07-26 11:53 METAR KTHV 261553Z AUTO 00000KT 10SM FEW038 31/21 A2997 RMK AO2 SLP146 T03060211
                 =

Support USWX by starting your Amazon purchase here.